sensor_id;sensor_type;location;lat;lon;timestamp;P1;durP1;ratioP1;P2;durP2;ratioP2
69900;SDS011;57183;50.930;5.406;2023-03-31T00:00:05;4.95;;;1.05;;
69900;SDS011;57183;50.930;5.406;2023-03-31T00:02:36;7.80;;;1.25;;
69900;SDS011;57183;50.930;5.406;2023-03-31T00:05:05;10.23;;;1.25;;
69900;SDS011;57183;50.930;5.406;2023-03-31T00:07:32;10.60;;;1.38;;
69900;SDS011;57183;50.930;5.406;2023-03-31T00:10:02;5.40;;;0.90;;
69900;SDS011;57183;50.930;5.406;2023-03-31T00:12:28;8.55;;;1.83;;
69900;SDS011;57183;50.930;5.406;2023-03-31T00:14:54;6.20;;;1.20;;
69900;SDS011;57183;50.930;5.406;2023-03-31T00:17:19;5.97;;;1.10;;
69900;SDS011;57183;50.930;5.406;2023-03-31T00:19:45;10.05;;;1.30;;
69900;SDS011;57183;50.930;5.406;2023-03-31T00:22:15;10.07;;;1.15;;
69900;SDS011;57183;50.930;5.406;2023-03-31T00:24:46;14.15;;;1.38;;
69900;SDS011;57183;50.930;5.406;2023-03-31T00:27:12;8.77;;;2.03;;
69900;SDS011;57183;50.930;5.406;2023-03-31T00:29:38;11.65;;;1.60;;
69900;SDS011;57183;50.930;5.406;2023-03-31T00:32:06;4.75;;;1.20;;
69900;SDS011;57183;50.930;5.406;2023-03-31T00:34:32;7.60;;;1.10;;
69900;SDS011;57183;50.930;5.406;2023-03-31T00:36:58;6.18;;;1.50;;
69900;SDS011;57183;50.930;5.406;2023-03-31T00:39:26;8.55;;;1.80;;
69900;SDS011;57183;50.930;5.406;2023-03-31T00:41:56;11.15;;;4.10;;
69900;SDS011;57183;50.930;5.406;2023-03-31T00:44:22;8.75;;;1.75;;
69900;SDS011;57183;50.930;5.406;2023-03-31T00:49:28;7.30;;;1.42;;
69900;SDS011;57183;50.930;5.406;2023-03-31T00:52:20;11.18;;;2.22;;
69900;SDS011;57183;50.930;5.406;2023-03-31T00:54:52;12.73;;;1.20;;
69900;SDS011;57183;50.930;5.406;2023-03-31T00:59:50;11.60;;;1.65;;
69900;SDS011;57183;50.930;5.406;2023-03-31T01:02:21;11.68;;;1.65;;
69900;SDS011;57183;50.930;5.406;2023-03-31T01:04:52;9.07;;;1.90;;
69900;SDS011;57183;50.930;5.406;2023-03-31T01:10:06;14.80;;;3.05;;
69900;SDS011;57183;50.930;5.406;2023-03-31T01:12:33;18.73;;;2.00;;
69900;SDS011;57183;50.930;5.406;2023-03-31T01:15:03;15.98;;;2.15;;
69900;SDS011;57183;50.930;5.406;2023-03-31T01:17:29;9.07;;;1.67;;
69900;SDS011;57183;50.930;5.406;2023-03-31T01:20:08;10.43;;;1.75;;
69900;SDS011;57183;50.930;5.406;2023-03-31T01:47:19;8.63;;;2.03;;
69900;SDS011;57183;50.930;5.406;2023-03-31T01:50:23;13.50;;;1.88;;
69900;SDS011;57183;50.930;5.406;2023-03-31T01:53:19;12.30;;;1.98;;
69900;SDS011;57183;50.930;5.406;2023-03-31T01:58:34;9.77;;;1.55;;
69900;SDS011;57183;50.930;5.406;2023-03-31T02:01:55;9.52;;;1.60;;
69900;SDS011;57183;50.930;5.406;2023-03-31T02:04:12;9.60;;;1.70;;
69900;SDS011;57183;50.930;5.406;2023-03-31T02:06:56;7.40;;;1.27;;
69900;SDS011;57183;50.930;5.406;2023-03-31T02:09:34;9.13;;;1.42;;
69900;SDS011;57183;50.930;5.406;2023-03-31T02:12:03;7.00;;;1.63;;
69900;SDS011;57183;50.930;5.406;2023-03-31T02:14:33;11.65;;;1.60;;
69900;SDS011;57183;50.930;5.406;2023-03-31T02:17:00;14.02;;;1.98;;
69900;SDS011;57183;50.930;5.406;2023-03-31T02:19:32;9.27;;;1.80;;
69900;SDS011;57183;50.930;5.406;2023-03-31T02:22:03;5.40;;;1.00;;
69900;SDS011;57183;50.930;5.406;2023-03-31T02:24:31;7.13;;;1.75;;
69900;SDS011;57183;50.930;5.406;2023-03-31T02:27:06;9.40;;;1.60;;
69900;SDS011;57183;50.930;5.406;2023-03-31T02:29:41;6.43;;;1.17;;
69900;SDS011;57183;50.930;5.406;2023-03-31T02:32:12;6.13;;;1.67;;
69900;SDS011;57183;50.930;5.406;2023-03-31T02:34:39;6.70;;;1.40;;
69900;SDS011;57183;50.930;5.406;2023-03-31T02:37:05;6.03;;;1.02;;
69900;SDS011;57183;50.930;5.406;2023-03-31T02:39:33;6.78;;;0.73;;
69900;SDS011;57183;50.930;5.406;2023-03-31T02:42:01;7.20;;;1.27;;
69900;SDS011;57183;50.930;5.406;2023-03-31T02:44:34;6.55;;;1.90;;
69900;SDS011;57183;50.930;5.406;2023-03-31T02:47:01;8.40;;;0.93;;
69900;SDS011;57183;50.930;5.406;2023-03-31T02:49:29;7.90;;;1.20;;
69900;SDS011;57183;50.930;5.406;2023-03-31T02:55:14;8.05;;;1.17;;
69900;SDS011;57183;50.930;5.406;2023-03-31T03:01:04;7.45;;;1.17;;
69900;SDS011;57183;50.930;5.406;2023-03-31T03:12:25;5.32;;;0.82;;
69900;SDS011;57183;50.930;5.406;2023-03-31T03:15:00;8.52;;;1.08;;
69900;SDS011;57183;50.930;5.406;2023-03-31T03:17:32;6.55;;;1.17;;
69900;SDS011;57183;50.930;5.406;2023-03-31T03:20:18;3.90;;;0.85;;
69900;SDS011;57183;50.930;5.406;2023-03-31T03:22:45;8.43;;;3.72;;
69900;SDS011;57183;50.930;5.406;2023-03-31T03:25:11;5.40;;;1.08;;
69900;SDS011;57183;50.930;5.406;2023-03-31T03:27:38;6.20;;;1.08;;
69900;SDS011;57183;50.930;5.406;2023-03-31T03:30:05;6.38;;;1.27;;
69900;SDS011;57183;50.930;5.406;2023-03-31T03:32:33;2.55;;;0.88;;
69900;SDS011;57183;50.930;5.406;2023-03-31T03:35:02;5.47;;;1.13;;
69900;SDS011;57183;50.930;5.406;2023-03-31T03:37:29;7.53;;;1.42;;
69900;SDS011;57183;50.930;5.406;2023-03-31T03:39:55;4.25;;;1.20;;
69900;SDS011;57183;50.930;5.406;2023-03-31T03:42:21;4.50;;;0.90;;
69900;SDS011;57183;50.930;5.406;2023-03-31T03:44:47;5.53;;;0.77;;
69900;SDS011;57183;50.930;5.406;2023-03-31T03:47:12;6.38;;;1.00;;
69900;SDS011;57183;50.930;5.406;2023-03-31T03:49:38;3.30;;;0.60;;
69900;SDS011;57183;50.930;5.406;2023-03-31T03:52:04;2.38;;;0.57;;
69900;SDS011;57183;50.930;5.406;2023-03-31T03:54:30;6.22;;;0.90;;
69900;SDS011;57183;50.930;5.406;2023-03-31T03:56:56;3.53;;;0.93;;
69900;SDS011;57183;50.930;5.406;2023-03-31T03:59:22;4.43;;;1.00;;
69900;SDS011;57183;50.930;5.406;2023-03-31T04:01:48;1.65;;;0.75;;
69900;SDS011;57183;50.930;5.406;2023-03-31T04:04:14;8.68;;;0.80;;
69900;SDS011;57183;50.930;5.406;2023-03-31T04:06:40;8.38;;;1.00;;
69900;SDS011;57183;50.930;5.406;2023-03-31T04:09:06;6.75;;;0.75;;
69900;SDS011;57183;50.930;5.406;2023-03-31T04:11:32;6.13;;;1.23;;
69900;SDS011;57183;50.930;5.406;2023-03-31T04:14:01;7.68;;;0.90;;
69900;SDS011;57183;50.930;5.406;2023-03-31T04:16:27;4.13;;;0.60;;
69900;SDS011;57183;50.930;5.406;2023-03-31T04:18:53;5.88;;;0.70;;
69900;SDS011;57183;50.930;5.406;2023-03-31T04:21:23;4.32;;;1.05;;
69900;SDS011;57183;50.930;5.406;2023-03-31T04:23:52;4.35;;;0.80;;
69900;SDS011;57183;50.930;5.406;2023-03-31T04:26:29;4.93;;;1.10;;
69900;SDS011;57183;50.930;5.406;2023-03-31T04:29:06;4.07;;;0.80;;
69900;SDS011;57183;50.930;5.406;2023-03-31T04:31:33;3.83;;;0.60;;
69900;SDS011;57183;50.930;5.406;2023-03-31T04:34:02;8.38;;;1.00;;
69900;SDS011;57183;50.930;5.406;2023-03-31T04:36:30;4.82;;;1.35;;
69900;SDS011;57183;50.930;5.406;2023-03-31T04:38:57;4.82;;;1.00;;
69900;SDS011;57183;50.930;5.406;2023-03-31T04:41:24;4.88;;;1.00;;
69900;SDS011;57183;50.930;5.406;2023-03-31T04:43:51;2.08;;;0.80;;
69900;SDS011;57183;50.930;5.406;2023-03-31T04:46:17;1.65;;;0.60;;
69900;SDS011;57183;50.930;5.406;2023-03-31T04:48:43;7.18;;;1.00;;
69900;SDS011;57183;50.930;5.406;2023-03-31T04:51:09;9.02;;;1.25;;
69900;SDS011;57183;50.930;5.406;2023-03-31T04:53:35;7.03;;;1.08;;
69900;SDS011;57183;50.930;5.406;2023-03-31T04:56:01;4.85;;;1.95;;
69900;SDS011;57183;50.930;5.406;2023-03-31T04:58:28;5.78;;;2.28;;
69900;SDS011;57183;50.930;5.406;2023-03-31T05:00:53;4.82;;;0.77;;
69900;SDS011;57183;50.930;5.406;2023-03-31T05:03:19;5.78;;;0.82;;
69900;SDS011;57183;50.930;5.406;2023-03-31T05:05:45;4.70;;;0.60;;
69900;SDS011;57183;50.930;5.406;2023-03-31T05:08:11;8.50;;;0.85;;
69900;SDS011;57183;50.930;5.406;2023-03-31T05:10:37;9.75;;;1.13;;
69900;SDS011;57183;50.930;5.406;2023-03-31T05:13:02;4.68;;;0.90;;
69900;SDS011;57183;50.930;5.406;2023-03-31T05:15:35;4.93;;;0.90;;
69900;SDS011;57183;50.930;5.406;2023-03-31T05:18:02;4.25;;;0.93;;
69900;SDS011;57183;50.930;5.406;2023-03-31T05:20:28;5.18;;;1.02;;
69900;SDS011;57183;50.930;5.406;2023-03-31T05:22:54;5.55;;;1.08;;
69900;SDS011;57183;50.930;5.406;2023-03-31T05:25:20;5.85;;;1.58;;
69900;SDS011;57183;50.930;5.406;2023-03-31T05:27:46;5.63;;;0.98;;
69900;SDS011;57183;50.930;5.406;2023-03-31T05:30:13;6.18;;;1.55;;
69900;SDS011;57183;50.930;5.406;2023-03-31T05:32:40;7.25;;;1.40;;
69900;SDS011;57183;50.930;5.406;2023-03-31T05:35:06;10.13;;;1.95;;
69900;SDS011;57183;50.930;5.406;2023-03-31T05:37:32;9.38;;;1.05;;
69900;SDS011;57183;50.930;5.406;2023-03-31T05:39:58;4.78;;;0.90;;
69900;SDS011;57183;50.930;5.406;2023-03-31T05:42:23;5.43;;;1.08;;
69900;SDS011;57183;50.930;5.406;2023-03-31T05:44:49;4.63;;;1.02;;
69900;SDS011;57183;50.930;5.406;2023-03-31T05:47:15;5.93;;;1.05;;
69900;SDS011;57183;50.930;5.406;2023-03-31T05:49:41;6.70;;;0.95;;
69900;SDS011;57183;50.930;5.406;2023-03-31T05:52:07;7.13;;;1.67;;
69900;SDS011;57183;50.930;5.406;2023-03-31T05:54:33;2.35;;;1.15;;
69900;SDS011;57183;50.930;5.406;2023-03-31T05:56:59;3.55;;;0.90;;
69900;SDS011;57183;50.930;5.406;2023-03-31T05:59:25;3.17;;;0.93;;
69900;SDS011;57183;50.930;5.406;2023-03-31T06:01:51;7.22;;;0.80;;
69900;SDS011;57183;50.930;5.406;2023-03-31T06:04:17;5.35;;;0.75;;
69900;SDS011;57183;50.930;5.406;2023-03-31T06:06:43;4.60;;;1.50;;
69900;SDS011;57183;50.930;5.406;2023-03-31T06:09:10;3.00;;;0.70;;
69900;SDS011;57183;50.930;5.406;2023-03-31T06:11:36;3.67;;;0.95;;
69900;SDS011;57183;50.930;5.406;2023-03-31T06:14:03;10.23;;;1.65;;
69900;SDS011;57183;50.930;5.406;2023-03-31T06:16:29;8.20;;;0.93;;
69900;SDS011;57183;50.930;5.406;2023-03-31T06:18:55;2.15;;;0.80;;
69900;SDS011;57183;50.930;5.406;2023-03-31T06:21:21;8.55;;;1.20;;
69900;SDS011;57183;50.930;5.406;2023-03-31T06:23:47;4.70;;;1.00;;
69900;SDS011;57183;50.930;5.406;2023-03-31T06:26:15;7.50;;;1.00;;
69900;SDS011;57183;50.930;5.406;2023-03-31T06:28:42;6.72;;;0.90;;
69900;SDS011;57183;50.930;5.406;2023-03-31T06:31:09;3.53;;;0.82;;
69900;SDS011;57183;50.930;5.406;2023-03-31T06:33:40;7.80;;;1.13;;
69900;SDS011;57183;50.930;5.406;2023-03-31T06:36:07;8.75;;;0.93;;
69900;SDS011;57183;50.930;5.406;2023-03-31T06:38:34;5.72;;;1.13;;
69900;SDS011;57183;50.930;5.406;2023-03-31T06:41:02;3.50;;;1.08;;
69900;SDS011;57183;50.930;5.406;2023-03-31T06:43:29;6.28;;;1.05;;
69900;SDS011;57183;50.930;5.406;2023-03-31T06:45:55;5.22;;;1.45;;
69900;SDS011;57183;50.930;5.406;2023-03-31T06:48:21;5.75;;;0.85;;
69900;SDS011;57183;50.930;5.406;2023-03-31T06:50:48;5.88;;;0.95;;
69900;SDS011;57183;50.930;5.406;2023-03-31T06:53:14;3.97;;;0.80;;
69900;SDS011;57183;50.930;5.406;2023-03-31T06:55:39;7.45;;;1.25;;
69900;SDS011;57183;50.930;5.406;2023-03-31T06:58:05;9.68;;;2.20;;
69900;SDS011;57183;50.930;5.406;2023-03-31T07:00:31;5.22;;;1.05;;
69900;SDS011;57183;50.930;5.406;2023-03-31T07:02:58;6.30;;;1.30;;
69900;SDS011;57183;50.930;5.406;2023-03-31T07:05:25;6.72;;;1.17;;
69900;SDS011;57183;50.930;5.406;2023-03-31T07:07:52;7.18;;;1.20;;
69900;SDS011;57183;50.930;5.406;2023-03-31T07:10:18;7.07;;;1.85;;
69900;SDS011;57183;50.930;5.406;2023-03-31T07:12:44;8.80;;;1.23;;
69900;SDS011;57183;50.930;5.406;2023-03-31T07:15:10;11.95;;;2.63;;
69900;SDS011;57183;50.930;5.406;2023-03-31T07:17:36;13.35;;;2.65;;
69900;SDS011;57183;50.930;5.406;2023-03-31T07:20:06;11.25;;;1.92;;
69900;SDS011;57183;50.930;5.406;2023-03-31T07:22:42;8.57;;;1.63;;
69900;SDS011;57183;50.930;5.406;2023-03-31T07:25:09;10.48;;;1.10;;
69900;SDS011;57183;50.930;5.406;2023-03-31T07:27:36;7.85;;;1.10;;
69900;SDS011;57183;50.930;5.406;2023-03-31T07:30:05;9.77;;;1.23;;
69900;SDS011;57183;50.930;5.406;2023-03-31T07:32:33;11.10;;;1.85;;
69900;SDS011;57183;50.930;5.406;2023-03-31T07:35:04;6.53;;;1.17;;
69900;SDS011;57183;50.930;5.406;2023-03-31T07:37:37;11.38;;;1.67;;
69900;SDS011;57183;50.930;5.406;2023-03-31T07:40:03;9.65;;;2.20;;
69900;SDS011;57183;50.930;5.406;2023-03-31T07:42:30;6.88;;;1.70;;
69900;SDS011;57183;50.930;5.406;2023-03-31T07:44:57;9.90;;;1.60;;
69900;SDS011;57183;50.930;5.406;2023-03-31T07:47:22;9.85;;;2.58;;
69900;SDS011;57183;50.930;5.406;2023-03-31T07:49:49;9.40;;;1.35;;
69900;SDS011;57183;50.930;5.406;2023-03-31T07:52:15;10.82;;;2.33;;
69900;SDS011;57183;50.930;5.406;2023-03-31T07:54:42;6.85;;;1.65;;
69900;SDS011;57183;50.930;5.406;2023-03-31T07:57:08;9.55;;;1.77;;
69900;SDS011;57183;50.930;5.406;2023-03-31T07:59:34;9.98;;;1.90;;
69900;SDS011;57183;50.930;5.406;2023-03-31T08:01:59;5.72;;;1.55;;
69900;SDS011;57183;50.930;5.406;2023-03-31T08:04:25;9.48;;;2.13;;
69900;SDS011;57183;50.930;5.406;2023-03-31T08:06:51;7.35;;;1.52;;
69900;SDS011;57183;50.930;5.406;2023-03-31T08:09:17;8.50;;;1.33;;
69900;SDS011;57183;50.930;5.406;2023-03-31T08:11:43;6.03;;;1.38;;
69900;SDS011;57183;50.930;5.406;2023-03-31T08:14:09;6.93;;;1.45;;
69900;SDS011;57183;50.930;5.406;2023-03-31T08:16:35;11.75;;;1.80;;
69900;SDS011;57183;50.930;5.406;2023-03-31T08:19:01;11.90;;;2.05;;
69900;SDS011;57183;50.930;5.406;2023-03-31T08:21:27;7.25;;;1.95;;
69900;SDS011;57183;50.930;5.406;2023-03-31T08:23:54;7.63;;;2.03;;
69900;SDS011;57183;50.930;5.406;2023-03-31T08:26:20;8.32;;;1.17;;
69900;SDS011;57183;50.930;5.406;2023-03-31T08:28:48;6.30;;;2.10;;
69900;SDS011;57183;50.930;5.406;2023-03-31T08:31:14;7.90;;;1.42;;
69900;SDS011;57183;50.930;5.406;2023-03-31T08:33:41;13.68;;;2.38;;
69900;SDS011;57183;50.930;5.406;2023-03-31T08:36:07;13.02;;;1.60;;
69900;SDS011;57183;50.930;5.406;2023-03-31T08:38:38;7.63;;;2.17;;
69900;SDS011;57183;50.930;5.406;2023-03-31T08:43:45;7.78;;;1.38;;
69900;SDS011;57183;50.930;5.406;2023-03-31T08:46:13;7.60;;;1.48;;
69900;SDS011;57183;50.930;5.406;2023-03-31T08:48:44;12.43;;;2.03;;
69900;SDS011;57183;50.930;5.406;2023-03-31T08:56:20;5.45;;;1.95;;
69900;SDS011;57183;50.930;5.406;2023-03-31T08:58:50;10.27;;;1.95;;
69900;SDS011;57183;50.930;5.406;2023-03-31T09:01:32;10.73;;;1.83;;
69900;SDS011;57183;50.930;5.406;2023-03-31T09:06:38;13.18;;;2.10;;
69900;SDS011;57183;50.930;5.406;2023-03-31T09:09:10;9.32;;;1.70;;
69900;SDS011;57183;50.930;5.406;2023-03-31T09:15:21;4.70;;;1.10;;
69900;SDS011;57183;50.930;5.406;2023-03-31T09:17:47;10.50;;;2.03;;
69900;SDS011;57183;50.930;5.406;2023-03-31T09:20:17;9.77;;;1.67;;
69900;SDS011;57183;50.930;5.406;2023-03-31T09:22:47;11.73;;;1.98;;
69900;SDS011;57183;50.930;5.406;2023-03-31T09:25:20;12.80;;;1.42;;
69900;SDS011;57183;50.930;5.406;2023-03-31T09:27:50;7.72;;;1.40;;
69900;SDS011;57183;50.930;5.406;2023-03-31T09:30:26;8.80;;;1.35;;
69900;SDS011;57183;50.930;5.406;2023-03-31T09:33:08;6.82;;;1.58;;
69900;SDS011;57183;50.930;5.406;2023-03-31T09:35:38;7.93;;;2.65;;
69900;SDS011;57183;50.930;5.406;2023-03-31T09:38:04;10.57;;;2.42;;
69900;SDS011;57183;50.930;5.406;2023-03-31T09:40:30;3.25;;;0.80;;
69900;SDS011;57183;50.930;5.406;2023-03-31T09:42:57;7.22;;;1.50;;
69900;SDS011;57183;50.930;5.406;2023-03-31T09:45:25;6.70;;;1.40;;
69900;SDS011;57183;50.930;5.406;2023-03-31T09:48:26;7.97;;;1.10;;
69900;SDS011;57183;50.930;5.406;2023-03-31T09:50:56;4.10;;;0.73;;
69900;SDS011;57183;50.930;5.406;2023-03-31T09:55:59;8.30;;;1.65;;
69900;SDS011;57183;50.930;5.406;2023-03-31T09:58:26;0.98;;;0.65;;
69900;SDS011;57183;50.930;5.406;2023-03-31T10:00:59;4.88;;;1.33;;
69900;SDS011;57183;50.930;5.406;2023-03-31T10:03:27;5.88;;;1.05;;
69900;SDS011;57183;50.930;5.406;2023-03-31T10:06:00;5.63;;;1.48;;
69900;SDS011;57183;50.930;5.406;2023-03-31T10:08:40;5.55;;;1.10;;
69900;SDS011;57183;50.930;5.406;2023-03-31T10:11:09;4.72;;;1.20;;
69900;SDS011;57183;50.930;5.406;2023-03-31T10:16:05;5.40;;;1.20;;
69900;SDS011;57183;50.930;5.406;2023-03-31T10:18:37;5.13;;;1.35;;
69900;SDS011;57183;50.930;5.406;2023-03-31T10:21:05;10.05;;;1.48;;
69900;SDS011;57183;50.930;5.406;2023-03-31T10:23:40;10.82;;;1.40;;
69900;SDS011;57183;50.930;5.406;2023-03-31T10:26:11;6.80;;;1.35;;
69900;SDS011;57183;50.930;5.406;2023-03-31T10:28:41;9.48;;;1.50;;
69900;SDS011;57183;50.930;5.406;2023-03-31T10:31:07;9.60;;;1.90;;
69900;SDS011;57183;50.930;5.406;2023-03-31T10:33:33;8.80;;;1.58;;
69900;SDS011;57183;50.930;5.406;2023-03-31T10:36:07;7.85;;;2.08;;
69900;SDS011;57183;50.930;5.406;2023-03-31T10:38:45;15.10;;;4.25;;
69900;SDS011;57183;50.930;5.406;2023-03-31T10:41:12;4.97;;;1.60;;
69900;SDS011;57183;50.930;5.406;2023-03-31T10:43:53;6.32;;;1.23;;
69900;SDS011;57183;50.930;5.406;2023-03-31T10:46:38;10.25;;;1.50;;
69900;SDS011;57183;50.930;5.406;2023-03-31T10:49:25;7.38;;;1.75;;
69900;SDS011;57183;50.930;5.406;2023-03-31T10:51:55;10.38;;;1.33;;
69900;SDS011;57183;50.930;5.406;2023-03-31T10:54:23;9.88;;;1.80;;
69900;SDS011;57183;50.930;5.406;2023-03-31T10:56:59;11.45;;;1.50;;
69900;SDS011;57183;50.930;5.406;2023-03-31T11:02:58;14.80;;;2.17;;
69900;SDS011;57183;50.930;5.406;2023-03-31T11:05:49;11.00;;;1.75;;
69900;SDS011;57183;50.930;5.406;2023-03-31T11:16:11;7.57;;;1.33;;
69900;SDS011;57183;50.930;5.406;2023-03-31T11:18:56;14.05;;;1.52;;
69900;SDS011;57183;50.930;5.406;2023-03-31T11:21:34;9.52;;;1.85;;
69900;SDS011;57183;50.930;5.406;2023-03-31T11:24:27;10.25;;;1.38;;
69900;SDS011;57183;50.930;5.406;2023-03-31T11:36:05;6.40;;;2.03;;
69900;SDS011;57183;50.930;5.406;2023-03-31T11:41:20;20.65;;;1.52;;
69900;SDS011;57183;50.930;5.406;2023-03-31T11:43:54;6.47;;;1.23;;
69900;SDS011;57183;50.930;5.406;2023-03-31T11:49:15;12.82;;;2.42;;
69900;SDS011;57183;50.930;5.406;2023-03-31T11:52:07;6.05;;;0.85;;
69900;SDS011;57183;50.930;5.406;2023-03-31T11:54:48;2.45;;;0.70;;
69900;SDS011;57183;50.930;5.406;2023-03-31T12:05:36;4.18;;;0.80;;
69900;SDS011;57183;50.930;5.406;2023-03-31T12:08:13;5.40;;;0.68;;
69900;SDS011;57183;50.930;5.406;2023-03-31T12:10:47;5.70;;;1.02;;
69900;SDS011;57183;50.930;5.406;2023-03-31T12:16:24;4.63;;;0.90;;
69900;SDS011;57183;50.930;5.406;2023-03-31T12:18:45;5.47;;;1.27;;
69900;SDS011;57183;50.930;5.406;2023-03-31T12:21:26;5.15;;;0.75;;
69900;SDS011;57183;50.930;5.406;2023-03-31T12:23:54;4.47;;;1.00;;
69900;SDS011;57183;50.930;5.406;2023-03-31T12:26:28;3.38;;;0.75;;
69900;SDS011;57183;50.930;5.406;2023-03-31T12:29:15;3.10;;;0.80;;
69900;SDS011;57183;50.930;5.406;2023-03-31T12:31:52;7.03;;;1.45;;
69900;SDS011;57183;50.930;5.406;2023-03-31T12:34:20;7.00;;;0.70;;
69900;SDS011;57183;50.930;5.406;2023-03-31T12:44:29;8.48;;;0.88;;
69900;SDS011;57183;50.930;5.406;2023-03-31T12:47:06;5.82;;;1.08;;
69900;SDS011;57183;50.930;5.406;2023-03-31T12:52:27;5.35;;;1.08;;
69900;SDS011;57183;50.930;5.406;2023-03-31T12:57:48;5.25;;;0.93;;
69900;SDS011;57183;50.930;5.406;2023-03-31T13:00:18;3.58;;;1.10;;
69900;SDS011;57183;50.930;5.406;2023-03-31T13:08:02;4.95;;;0.60;;
69900;SDS011;57183;50.930;5.406;2023-03-31T13:10:55;3.92;;;1.08;;
69900;SDS011;57183;50.930;5.406;2023-03-31T13:13:22;5.40;;;0.85;;
69900;SDS011;57183;50.930;5.406;2023-03-31T13:15:53;8.35;;;1.30;;
69900;SDS011;57183;50.930;5.406;2023-03-31T13:18:23;3.25;;;0.60;;
69900;SDS011;57183;50.930;5.406;2023-03-31T13:20:59;1.17;;;0.70;;
69900;SDS011;57183;50.930;5.406;2023-03-31T13:23:29;4.13;;;0.63;;
69900;SDS011;57183;50.930;5.406;2023-03-31T13:25:58;8.55;;;1.63;;
69900;SDS011;57183;50.930;5.406;2023-03-31T13:30:51;4.18;;;1.50;;
69900;SDS011;57183;50.930;5.406;2023-03-31T13:36:45;9.90;;;2.50;;
69900;SDS011;57183;50.930;5.406;2023-03-31T13:53:04;8.57;;;1.27;;
69900;SDS011;57183;50.930;5.406;2023-03-31T13:55:58;6.13;;;0.98;;
69900;SDS011;57183;50.930;5.406;2023-03-31T14:07:11;2.58;;;0.70;;
69900;SDS011;57183;50.930;5.406;2023-03-31T14:09:42;3.83;;;0.93;;
69900;SDS011;57183;50.930;5.406;2023-03-31T14:15:01;8.63;;;2.42;;
69900;SDS011;57183;50.930;5.406;2023-03-31T14:17:29;2.03;;;0.57;;
69900;SDS011;57183;50.930;5.406;2023-03-31T14:20:08;3.63;;;0.52;;
69900;SDS011;57183;50.930;5.406;2023-03-31T14:37:12;3.03;;;0.50;;
69900;SDS011;57183;50.930;5.406;2023-03-31T14:39:48;4.00;;;0.32;;
69900;SDS011;57183;50.930;5.406;2023-03-31T14:42:18;6.68;;;0.95;;
69900;SDS011;57183;50.930;5.406;2023-03-31T14:44:49;2.00;;;0.95;;
69900;SDS011;57183;50.930;5.406;2023-03-31T14:47:26;1.92;;;0.47;;
69900;SDS011;57183;50.930;5.406;2023-03-31T14:52:27;3.90;;;0.65;;
69900;SDS011;57183;50.930;5.406;2023-03-31T14:54:55;1.77;;;0.50;;
69900;SDS011;57183;50.930;5.406;2023-03-31T14:57:25;5.07;;;0.77;;
69900;SDS011;57183;50.930;5.406;2023-03-31T15:00:02;2.67;;;0.35;;
69900;SDS011;57183;50.930;5.406;2023-03-31T15:02:34;2.05;;;0.47;;
69900;SDS011;57183;50.930;5.406;2023-03-31T15:05:07;3.83;;;0.40;;
69900;SDS011;57183;50.930;5.406;2023-03-31T15:07:35;0.70;;;0.30;;
69900;SDS011;57183;50.930;5.406;2023-03-31T15:10:01;1.98;;;0.47;;
69900;SDS011;57183;50.930;5.406;2023-03-31T15:12:28;2.13;;;0.20;;
69900;SDS011;57183;50.930;5.406;2023-03-31T15:15:04;0.30;;;0.10;;
69900;SDS011;57183;50.930;5.406;2023-03-31T15:17:36;0.70;;;0.20;;
69900;SDS011;57183;50.930;5.406;2023-03-31T15:23:16;2.58;;;0.30;;
69900;SDS011;57183;50.930;5.406;2023-03-31T15:25:53;0.90;;;0.30;;
69900;SDS011;57183;50.930;5.406;2023-03-31T15:28:26;2.05;;;0.10;;
69900;SDS011;57183;50.930;5.406;2023-03-31T15:30:58;1.30;;;0.30;;
69900;SDS011;57183;50.930;5.406;2023-03-31T15:33:26;0.45;;;0.10;;
69900;SDS011;57183;50.930;5.406;2023-03-31T15:36:00;1.27;;;1.02;;
69900;SDS011;57183;50.930;5.406;2023-03-31T15:38:27;2.03;;;0.50;;
69900;SDS011;57183;50.930;5.406;2023-03-31T15:40:56;3.20;;;0.60;;
69900;SDS011;57183;50.930;5.406;2023-03-31T15:43:27;3.28;;;0.40;;
69900;SDS011;57183;50.930;5.406;2023-03-31T15:46:08;3.10;;;0.70;;
69900;SDS011;57183;50.930;5.406;2023-03-31T15:48:49;1.10;;;0.20;;
69900;SDS011;57183;50.930;5.406;2023-03-31T15:51:24;1.80;;;0.43;;
69900;SDS011;57183;50.930;5.406;2023-03-31T15:53:53;1.90;;;0.10;;
69900;SDS011;57183;50.930;5.406;2023-03-31T15:58:58;3.17;;;0.32;;
69900;SDS011;57183;50.930;5.406;2023-03-31T16:01:30;0.85;;;0.32;;
69900;SDS011;57183;50.930;5.406;2023-03-31T16:03:59;0.52;;;0.15;;
69900;SDS011;57183;50.930;5.406;2023-03-31T16:09:22;1.63;;;0.68;;
69900;SDS011;57183;50.930;5.406;2023-03-31T16:11:49;1.90;;;0.20;;
69900;SDS011;57183;50.930;5.406;2023-03-31T16:16:48;0.73;;;0.22;;
69900;SDS011;57183;50.930;5.406;2023-03-31T16:19:18;1.73;;;0.50;;
69900;SDS011;57183;50.930;5.406;2023-03-31T16:21:47;1.75;;;0.40;;
69900;SDS011;57183;50.930;5.406;2023-03-31T16:24:16;3.10;;;0.50;;
69900;SDS011;57183;50.930;5.406;2023-03-31T16:26:52;1.75;;;0.47;;
69900;SDS011;57183;50.930;5.406;2023-03-31T16:29:31;1.77;;;0.38;;
69900;SDS011;57183;50.930;5.406;2023-03-31T16:32:17;4.68;;;0.47;;
69900;SDS011;57183;50.930;5.406;2023-03-31T16:34:54;3.10;;;0.63;;
69900;SDS011;57183;50.930;5.406;2023-03-31T16:37:22;2.28;;;0.40;;
69900;SDS011;57183;50.930;5.406;2023-03-31T16:39:48;4.88;;;1.10;;
69900;SDS011;57183;50.930;5.406;2023-03-31T16:42:14;1.25;;;0.40;;
69900;SDS011;57183;50.930;5.406;2023-03-31T16:44:40;2.63;;;0.40;;
69900;SDS011;57183;50.930;5.406;2023-03-31T16:47:05;2.83;;;0.60;;
69900;SDS011;57183;50.930;5.406;2023-03-31T16:49:31;3.40;;;0.60;;
69900;SDS011;57183;50.930;5.406;2023-03-31T16:51:57;2.20;;;1.80;;
69900;SDS011;57183;50.930;5.406;2023-03-31T16:54:23;3.40;;;0.57;;
69900;SDS011;57183;50.930;5.406;2023-03-31T16:56:48;3.83;;;0.60;;
69900;SDS011;57183;50.930;5.406;2023-03-31T16:59:15;3.75;;;0.82;;
69900;SDS011;57183;50.930;5.406;2023-03-31T17:01:40;2.05;;;0.77;;
69900;SDS011;57183;50.930;5.406;2023-03-31T17:04:06;4.00;;;1.38;;
69900;SDS011;57183;50.930;5.406;2023-03-31T17:06:32;2.63;;;0.85;;
69900;SDS011;57183;50.930;5.406;2023-03-31T17:08:57;1.65;;;0.50;;
69900;SDS011;57183;50.930;5.406;2023-03-31T17:11:23;3.05;;;0.80;;
69900;SDS011;57183;50.930;5.406;2023-03-31T17:13:50;1.83;;;0.40;;
69900;SDS011;57183;50.930;5.406;2023-03-31T17:16:16;1.90;;;0.47;;
69900;SDS011;57183;50.930;5.406;2023-03-31T17:18:42;1.08;;;0.30;;
69900;SDS011;57183;50.930;5.406;2023-03-31T17:21:09;1.67;;;0.20;;
69900;SDS011;57183;50.930;5.406;2023-03-31T17:23:36;3.22;;;0.50;;
69900;SDS011;57183;50.930;5.406;2023-03-31T17:26:03;1.08;;;0.20;;
69900;SDS011;57183;50.930;5.406;2023-03-31T17:28:30;1.10;;;0.35;;
69900;SDS011;57183;50.930;5.406;2023-03-31T17:30:57;4.22;;;0.30;;
69900;SDS011;57183;50.930;5.406;2023-03-31T17:33:23;0.60;;;0.15;;
69900;SDS011;57183;50.930;5.406;2023-03-31T17:35:49;1.58;;;0.40;;
69900;SDS011;57183;50.930;5.406;2023-03-31T17:38:19;0.98;;;0.40;;
69900;SDS011;57183;50.930;5.406;2023-03-31T17:40:47;1.65;;;0.57;;
69900;SDS011;57183;50.930;5.406;2023-03-31T17:43:13;1.95;;;0.40;;
69900;SDS011;57183;50.930;5.406;2023-03-31T17:45:38;4.88;;;0.90;;
69900;SDS011;57183;50.930;5.406;2023-03-31T17:48:05;2.28;;;0.40;;
69900;SDS011;57183;50.930;5.406;2023-03-31T17:50:30;5.53;;;0.60;;
69900;SDS011;57183;50.930;5.406;2023-03-31T17:52:57;7.32;;;0.65;;
69900;SDS011;57183;50.930;5.406;2023-03-31T17:55:23;3.65;;;0.57;;
69900;SDS011;57183;50.930;5.406;2023-03-31T17:57:49;2.80;;;0.50;;
69900;SDS011;57183;50.930;5.406;2023-03-31T18:00:15;2.05;;;0.57;;
69900;SDS011;57183;50.930;5.406;2023-03-31T18:02:41;4.25;;;0.60;;
69900;SDS011;57183;50.930;5.406;2023-03-31T18:05:08;3.15;;;0.65;;